sensor_id;sensor_type;location;lat;lon;timestamp;pressure;altitude;pressure_sealevel;temperature;humidity
78841;BME280;68191;47.190;27.558;2023-03-01T00:00:29;101129.88;;;21.06;48.56
78841;BME280;68191;47.190;27.558;2023-03-01T00:03:00;101129.04;;;21.05;48.53
78841;BME280;68191;47.190;27.558;2023-03-01T00:05:30;101131.35;;;21.06;48.57
78841;BME280;68191;47.190;27.558;2023-03-01T00:08:00;101132.14;;;21.05;48.49
78841;BME280;68191;47.190;27.558;2023-03-01T00:10:31;101124.73;;;21.02;48.55
78841;BME280;68191;47.190;27.558;2023-03-01T00:13:01;101123.00;;;21.01;48.59
78841;BME280;68191;47.190;27.558;2023-03-01T00:15:37;101124.45;;;21.01;48.56
78841;BME280;68191;47.190;27.558;2023-03-01T00:18:08;101122.34;;;21.00;48.51
78841;BME280;68191;47.190;27.558;2023-03-01T00:20:38;101123.77;;;21.01;48.52
78841;BME280;68191;47.190;27.558;2023-03-01T00:23:08;101121.48;;;21.00;48.49
78841;BME280;68191;47.190;27.558;2023-03-01T00:25:45;101117.61;;;20.98;48.49
78841;BME280;68191;47.190;27.558;2023-03-01T00:28:15;101115.67;;;20.98;48.46
78841;BME280;68191;47.190;27.558;2023-03-01T00:30:46;101112.45;;;20.98;48.46
78841;BME280;68191;47.190;27.558;2023-03-01T00:33:17;101109.10;;;20.97;48.48
78841;BME280;68191;47.190;27.558;2023-03-01T00:35:47;101116.15;;;20.96;48.43
78841;BME280;68191;47.190;27.558;2023-03-01T00:38:18;101107.77;;;20.95;48.53
78841;BME280;68191;47.190;27.558;2023-03-01T00:40:48;101111.95;;;20.94;48.47
78841;BME280;68191;47.190;27.558;2023-03-01T00:43:19;101110.71;;;20.94;48.51
78841;BME280;68191;47.190;27.558;2023-03-01T00:45:49;101105.56;;;20.93;48.36
78841;BME280;68191;47.190;27.558;2023-03-01T00:48:19;101105.61;;;20.92;48.38
78841;BME280;68191;47.190;27.558;2023-03-01T00:50:50;101108.52;;;20.92;48.40
78841;BME280;68191;47.190;27.558;2023-03-01T00:53:20;101102.46;;;20.91;48.48
78841;BME280;68191;47.190;27.558;2023-03-01T00:55:50;101095.49;;;20.90;48.42
78841;BME280;68191;47.190;27.558;2023-03-01T00:58:20;101089.41;;;20.90;48.47
78841;BME280;68191;47.190;27.558;2023-03-01T01:00:50;101083.76;;;20.89;48.46
78841;BME280;68191;47.190;27.558;2023-03-01T01:03:21;101081.98;;;20.88;48.40
78841;BME280;68191;47.190;27.558;2023-03-01T01:05:54;101071.42;;;20.87;48.44
78841;BME280;68191;47.190;27.558;2023-03-01T01:08:24;101066.77;;;20.87;48.43
78841;BME280;68191;47.190;27.558;2023-03-01T01:10:54;101061.48;;;20.86;48.47
78841;BME280;68191;47.190;27.558;2023-03-01T01:13:28;101059.92;;;20.85;48.44
78841;BME280;68191;47.190;27.558;2023-03-01T01:15:59;101057.64;;;20.84;48.43
78841;BME280;68191;47.190;27.558;2023-03-01T01:18:30;101057.33;;;20.81;48.43
78841;BME280;68191;47.190;27.558;2023-03-01T01:21:06;101056.77;;;20.81;48.46
78841;BME280;68191;47.190;27.558;2023-03-01T01:23:37;101056.29;;;20.80;48.55
78841;BME280;68191;47.190;27.558;2023-03-01T01:26:10;101052.23;;;20.78;48.46
78841;BME280;68191;47.190;27.558;2023-03-01T01:28:41;101051.34;;;20.78;48.40
78841;BME280;68191;47.190;27.558;2023-03-01T01:31:12;101050.69;;;20.77;48.40
78841;BME280;68191;47.190;27.558;2023-03-01T01:33:42;101044.59;;;20.77;48.55
78841;BME280;68191;47.190;27.558;2023-03-01T01:36:13;101040.30;;;20.76;48.40
78841;BME280;68191;47.190;27.558;2023-03-01T01:38:44;101040.86;;;20.76;48.48
78841;BME280;68191;47.190;27.558;2023-03-01T01:41:14;101042.52;;;20.76;48.44
78841;BME280;68191;47.190;27.558;2023-03-01T01:43:47;101044.68;;;20.75;48.43
78841;BME280;68191;47.190;27.558;2023-03-01T01:46:24;101037.55;;;20.74;48.38
78841;BME280;68191;47.190;27.558;2023-03-01T01:49:00;101031.83;;;20.74;48.38
78841;BME280;68191;47.190;27.558;2023-03-01T01:51:35;101025.19;;;20.74;48.38
78841;BME280;68191;47.190;27.558;2023-03-01T01:54:12;101019.10;;;20.74;48.41
78841;BME280;68191;47.190;27.558;2023-03-01T01:56:49;101017.84;;;20.74;48.46
78841;BME280;68191;47.190;27.558;2023-03-01T01:59:24;101017.31;;;20.73;48.39
78841;BME280;68191;47.190;27.558;2023-03-01T02:01:55;101015.73;;;20.73;48.42
78841;BME280;68191;47.190;27.558;2023-03-01T02:04:28;101010.17;;;20.73;48.37
78841;BME280;68191;47.190;27.558;2023-03-01T02:07:01;101000.48;;;20.73;48.29
78841;BME280;68191;47.190;27.558;2023-03-01T02:09:33;100997.60;;;20.73;48.29
78841;BME280;68191;47.190;27.558;2023-03-01T02:12:05;100998.00;;;20.72;48.34
78841;BME280;68191;47.190;27.558;2023-03-01T02:14:35;100997.31;;;20.72;48.39
78841;BME280;68191;47.190;27.558;2023-03-01T02:17:06;100994.98;;;20.72;48.32
78841;BME280;68191;47.190;27.558;2023-03-01T02:19:46;100993.40;;;20.71;48.30
78841;BME280;68191;47.190;27.558;2023-03-01T02:22:22;100992.67;;;20.71;48.37
78841;BME280;68191;47.190;27.558;2023-03-01T02:25:03;100987.33;;;20.71;48.28
78841;BME280;68191;47.190;27.558;2023-03-01T02:27:44;100993.59;;;20.71;48.24
78841;BME280;68191;47.190;27.558;2023-03-01T02:30:18;100991.11;;;20.70;48.29
78841;BME280;68191;47.190;27.558;2023-03-01T02:32:50;100987.33;;;20.71;48.26
78841;BME280;68191;47.190;27.558;2023-03-01T02:35:21;100984.66;;;20.70;48.36
78841;BME280;68191;47.190;27.558;2023-03-01T02:37:52;100987.21;;;20.70;48.29
78841;BME280;68191;47.190;27.558;2023-03-01T02:40:26;100990.96;;;20.70;48.31
78841;BME280;68191;47.190;27.558;2023-03-01T02:42:58;100990.29;;;20.69;48.32
78841;BME280;68191;47.190;27.558;2023-03-01T02:45:29;100990.50;;;20.69;48.24
78841;BME280;68191;47.190;27.558;2023-03-01T02:47:59;100989.73;;;20.70;48.23
78841;BME280;68191;47.190;27.558;2023-03-01T02:50:51;100992.45;;;20.69;48.23
78841;BME280;68191;47.190;27.558;2023-03-01T02:53:31;100986.23;;;20.68;48.22
78841;BME280;68191;47.190;27.558;2023-03-01T02:56:06;100985.50;;;20.68;48.24
78841;BME280;68191;47.190;27.558;2023-03-01T02:58:42;100985.16;;;20.68;48.22
78841;BME280;68191;47.190;27.558;2023-03-01T03:01:16;100984.81;;;20.68;48.25
78841;BME280;68191;47.190;27.558;2023-03-01T03:03:47;100987.45;;;20.68;48.19
78841;BME280;68191;47.190;27.558;2023-03-01T03:06:17;100987.14;;;20.68;48.18
78841;BME280;68191;47.190;27.558;2023-03-01T03:08:48;100985.56;;;20.67;48.17
78841;BME280;68191;47.190;27.558;2023-03-01T03:11:18;100981.59;;;20.68;48.06
78841;BME280;68191;47.190;27.558;2023-03-01T03:13:49;100975.29;;;20.68;48.28
78841;BME280;68191;47.190;27.558;2023-03-01T03:16:21;100977.48;;;20.67;48.18
78841;BME280;68191;47.190;27.558;2023-03-01T03:18:51;100978.93;;;20.67;48.19
78841;BME280;68191;47.190;27.558;2023-03-01T03:21:21;100980.73;;;20.67;48.22
78841;BME280;68191;47.190;27.558;2023-03-01T03:23:52;100975.15;;;20.67;48.14
78841;BME280;68191;47.190;27.558;2023-03-01T03:26:22;100974.08;;;20.67;48.16
78841;BME280;68191;47.190;27.558;2023-03-01T03:28:52;100970.13;;;20.67;48.19
78841;BME280;68191;47.190;27.558;2023-03-01T03:31:23;100968.49;;;20.68;48.17
78841;BME280;68191;47.190;27.558;2023-03-01T03:33:53;100965.11;;;20.67;48.14
78841;BME280;68191;47.190;27.558;2023-03-01T03:36:24;100967.23;;;20.68;48.06
78841;BME280;68191;47.190;27.558;2023-03-01T03:38:55;100966.72;;;20.67;48.13
78841;BME280;68191;47.190;27.558;2023-03-01T03:41:25;100972.96;;;20.68;48.13
78841;BME280;68191;47.190;27.558;2023-03-01T03:43:55;100971.73;;;20.67;48.14
78841;BME280;68191;47.190;27.558;2023-03-01T03:46:26;100966.86;;;20.68;48.11
78841;BME280;68191;47.190;27.558;2023-03-01T03:48:56;100970.08;;;20.68;48.06
78841;BME280;68191;47.190;27.558;2023-03-01T03:51:26;100967.05;;;20.68;48.10
78841;BME280;68191;47.190;27.558;2023-03-01T03:53:57;100964.93;;;20.67;48.13
78841;BME280;68191;47.190;27.558;2023-03-01T03:56:27;100968.86;;;20.67;48.12
78841;BME280;68191;47.190;27.558;2023-03-01T03:58:57;100966.85;;;20.68;48.02
78841;BME280;68191;47.190;27.558;2023-03-01T04:01:28;100965.95;;;20.68;48.05
78841;BME280;68191;47.190;27.558;2023-03-01T04:03:58;100966.55;;;20.67;48.08
78841;BME280;68191;47.190;27.558;2023-03-01T04:06:33;100960.59;;;20.68;48.06
78841;BME280;68191;47.190;27.558;2023-03-01T04:09:04;100957.54;;;20.67;47.94
78841;BME280;68191;47.190;27.558;2023-03-01T04:11:34;100945.16;;;20.67;48.00
78841;BME280;68191;47.190;27.558;2023-03-01T04:14:04;100939.25;;;20.67;47.92
78841;BME280;68191;47.190;27.558;2023-03-01T04:16:35;100940.17;;;20.67;47.97
78841;BME280;68191;47.190;27.558;2023-03-01T04:19:05;100942.12;;;20.67;48.08
78841;BME280;68191;47.190;27.558;2023-03-01T04:21:35;100939.44;;;20.67;48.00
78841;BME280;68191;47.190;27.558;2023-03-01T04:24:07;100941.02;;;20.68;47.98
78841;BME280;68191;47.190;27.558;2023-03-01T04:26:38;100935.29;;;20.67;47.95
78841;BME280;68191;47.190;27.558;2023-03-01T04:29:08;100937.09;;;20.67;48.05
78841;BME280;68191;47.190;27.558;2023-03-01T04:31:39;100938.73;;;20.67;47.92
78841;BME280;68191;47.190;27.558;2023-03-01T04:34:09;100942.11;;;20.67;47.99
78841;BME280;68191;47.190;27.558;2023-03-01T04:36:39;100942.14;;;20.67;47.96
78841;BME280;68191;47.190;27.558;2023-03-01T04:39:09;100943.75;;;20.67;47.99
78841;BME280;68191;47.190;27.558;2023-03-01T04:41:41;100946.58;;;20.68;47.98
78841;BME280;68191;47.190;27.558;2023-03-01T04:44:13;100952.70;;;20.67;47.98
78841;BME280;68191;47.190;27.558;2023-03-01T04:46:43;100954.70;;;20.67;47.96
78841;BME280;68191;47.190;27.558;2023-03-01T04:49:13;100959.66;;;20.68;48.01
78841;BME280;68191;47.190;27.558;2023-03-01T04:51:44;100961.62;;;20.68;47.94
78841;BME280;68191;47.190;27.558;2023-03-01T04:54:14;100959.52;;;20.68;47.81
78841;BME280;68191;47.190;27.558;2023-03-01T04:56:44;100961.62;;;20.68;47.94
78841;BME280;68191;47.190;27.558;2023-03-01T04:59:15;100964.83;;;20.69;47.82
78841;BME280;68191;47.190;27.558;2023-03-01T05:01:46;100970.67;;;20.70;47.86
78841;BME280;68191;47.190;27.558;2023-03-01T05:04:16;100972.29;;;20.70;47.78
78841;BME280;68191;47.190;27.558;2023-03-01T05:06:47;100973.82;;;20.71;47.87
78841;BME280;68191;47.190;27.558;2023-03-01T05:09:18;100975.09;;;20.71;47.84
78841;BME280;68191;47.190;27.558;2023-03-01T05:11:48;100980.92;;;20.72;47.81
78841;BME280;68191;47.190;27.558;2023-03-01T05:14:20;100979.85;;;20.72;47.83
78841;BME280;68191;47.190;27.558;2023-03-01T05:16:50;100982.15;;;20.73;47.76
78841;BME280;68191;47.190;27.558;2023-03-01T05:19:20;100982.23;;;20.74;47.79
78841;BME280;68191;47.190;27.558;2023-03-01T05:21:51;100980.05;;;20.75;47.76
78841;BME280;68191;47.190;27.558;2023-03-01T05:24:35;100982.27;;;20.76;47.70
78841;BME280;68191;47.190;27.558;2023-03-01T05:27:05;100981.16;;;20.77;47.74
78841;BME280;68191;47.190;27.558;2023-03-01T05:29:36;100979.81;;;20.79;47.73
78841;BME280;68191;47.190;27.558;2023-03-01T05:32:08;100980.17;;;20.79;47.54
78841;BME280;68191;47.190;27.558;2023-03-01T05:34:43;100983.69;;;20.81;47.65
78841;BME280;68191;47.190;27.558;2023-03-01T05:37:15;100983.80;;;20.81;47.69
78841;BME280;68191;47.190;27.558;2023-03-01T05:39:45;100983.73;;;20.82;47.63
78841;BME280;68191;47.190;27.558;2023-03-01T05:42:15;100984.04;;;20.83;47.58
78841;BME280;68191;47.190;27.558;2023-03-01T05:44:45;100988.48;;;20.84;47.60
78841;BME280;68191;47.190;27.558;2023-03-01T05:47:16;100987.27;;;20.86;47.55
78841;BME280;68191;47.190;27.558;2023-03-01T05:49:46;100989.05;;;20.86;47.51
78841;BME280;68191;47.190;27.558;2023-03-01T05:52:18;100992.88;;;20.88;47.57
78841;BME280;68191;47.190;27.558;2023-03-01T05:54:48;100996.08;;;20.89;47.48
78841;BME280;68191;47.190;27.558;2023-03-01T05:57:18;101001.71;;;20.90;47.54
78841;BME280;68191;47.190;27.558;2023-03-01T05:59:51;101003.42;;;20.92;47.38
78841;BME280;68191;47.190;27.558;2023-03-01T06:02:21;101004.41;;;20.93;47.31
78841;BME280;68191;47.190;27.558;2023-03-01T06:04:52;101000.19;;;20.94;47.39
78841;BME280;68191;47.190;27.558;2023-03-01T06:07:22;101001.70;;;20.96;47.32
78841;BME280;68191;47.190;27.558;2023-03-01T06:09:52;101001.96;;;20.98;47.35
78841;BME280;68191;47.190;27.558;2023-03-01T06:12:23;100995.98;;;20.98;47.24
78841;BME280;68191;47.190;27.558;2023-03-01T06:14:53;100994.02;;;21.01;47.33
78841;BME280;68191;47.190;27.558;2023-03-01T06:17:24;100992.02;;;21.04;47.19
78841;BME280;68191;47.190;27.558;2023-03-01T06:19:54;100994.03;;;21.09;47.20
78841;BME280;68191;47.190;27.558;2023-03-01T06:22:24;100997.56;;;21.13;47.17
78841;BME280;68191;47.190;27.558;2023-03-01T06:24:55;100996.02;;;21.14;47.13
78841;BME280;68191;47.190;27.558;2023-03-01T06:27:25;100994.66;;;21.19;47.24
78841;BME280;68191;47.190;27.558;2023-03-01T06:29:55;100996.69;;;21.24;47.79
78841;BME280;68191;47.190;27.558;2023-03-01T06:32:26;100993.95;;;21.27;47.70
78841;BME280;68191;47.190;27.558;2023-03-01T06:34:56;100993.10;;;21.29;47.40
78841;BME280;68191;47.190;27.558;2023-03-01T06:37:27;100994.94;;;21.31;47.50
78841;BME280;68191;47.190;27.558;2023-03-01T06:39:57;100988.39;;;21.37;47.47
78841;BME280;68191;47.190;27.558;2023-03-01T06:42:28;100988.58;;;21.43;47.29
78841;BME280;68191;47.190;27.558;2023-03-01T06:44:58;100989.98;;;21.49;47.13
78841;BME280;68191;47.190;27.558;2023-03-01T06:47:29;100991.67;;;21.56;47.15
78841;BME280;68191;47.190;27.558;2023-03-01T06:49:59;100992.83;;;21.60;47.80
78841;BME280;68191;47.190;27.558;2023-03-01T06:52:30;100990.31;;;21.66;47.82
78841;BME280;68191;47.190;27.558;2023-03-01T06:55:00;100989.48;;;21.70;47.81
78841;BME280;68191;47.190;27.558;2023-03-01T06:57:31;100990.16;;;21.73;47.76
78841;BME280;68191;47.190;27.558;2023-03-01T07:00:01;100995.44;;;21.78;47.93
78841;BME280;68191;47.190;27.558;2023-03-01T07:02:31;100995.89;;;21.84;47.82
78841;BME280;68191;47.190;27.558;2023-03-01T07:05:02;100992.54;;;21.88;47.81
78841;BME280;68191;47.190;27.558;2023-03-01T07:07:33;100987.80;;;21.92;47.66
78841;BME280;68191;47.190;27.558;2023-03-01T07:10:04;100985.27;;;21.95;47.59
78841;BME280;68191;47.190;27.558;2023-03-01T07:12:35;100984.15;;;22.03;47.42
78841;BME280;68191;47.190;27.558;2023-03-01T07:15:08;100980.57;;;22.06;47.21
78841;BME280;68191;47.190;27.558;2023-03-01T07:17:39;100980.35;;;22.07;47.20
78841;BME280;68191;47.190;27.558;2023-03-01T07:20:12;100981.88;;;22.08;46.98
78841;BME280;68191;47.190;27.558;2023-03-01T07:22:43;100984.30;;;22.12;46.84
78841;BME280;68191;47.190;27.558;2023-03-01T07:25:13;100985.52;;;22.23;46.75
78841;BME280;68191;47.190;27.558;2023-03-01T07:27:44;100987.29;;;22.31;46.55
78841;BME280;68191;47.190;27.558;2023-03-01T07:30:20;100982.73;;;22.34;46.61
78841;BME280;68191;47.190;27.558;2023-03-01T07:32:51;100973.86;;;22.42;46.33
78841;BME280;68191;47.190;27.558;2023-03-01T07:35:21;100974.36;;;22.56;46.16
78841;BME280;68191;47.190;27.558;2023-03-01T07:37:52;100977.23;;;22.54;46.15
78841;BME280;68191;47.190;27.558;2023-03-01T07:40:23;100976.88;;;22.49;46.10
78841;BME280;68191;47.190;27.558;2023-03-01T07:42:58;100970.90;;;22.43;46.18
78841;BME280;68191;47.190;27.558;2023-03-01T07:45:30;100967.52;;;22.43;46.11
78841;BME280;68191;47.190;27.558;2023-03-01T07:48:00;100971.25;;;22.41;46.10
78841;BME280;68191;47.190;27.558;2023-03-01T07:50:31;100973.70;;;22.37;46.16
78841;BME280;68191;47.190;27.558;2023-03-01T07:53:01;100973.09;;;22.33;46.25
78841;BME280;68191;47.190;27.558;2023-03-01T07:55:33;100970.99;;;22.55;45.83
78841;BME280;68191;47.190;27.558;2023-03-01T07:58:04;100977.75;;;22.54;45.84
78841;BME280;68191;47.190;27.558;2023-03-01T08:00:35;100977.66;;;22.50;45.91
78841;BME280;68191;47.190;27.558;2023-03-01T08:03:05;100972.08;;;22.53;45.85
78841;BME280;68191;47.190;27.558;2023-03-01T08:05:36;100964.27;;;22.49;45.84
78841;BME280;68191;47.190;27.558;2023-03-01T08:08:07;100955.63;;;22.51;45.86
78841;BME280;68191;47.190;27.558;2023-03-01T08:10:39;100955.34;;;22.50;45.77
78841;BME280;68191;47.190;27.558;2023-03-01T08:13:09;100953.87;;;22.45;45.84
78841;BME280;68191;47.190;27.558;2023-03-01T08:15:40;100953.16;;;22.42;45.90
78841;BME280;68191;47.190;27.558;2023-03-01T08:18:10;100957.18;;;22.39;46.03
78841;BME280;68191;47.190;27.558;2023-03-01T08:20:41;100951.40;;;22.37;46.05
78841;BME280;68191;47.190;27.558;2023-03-01T08:23:11;100943.48;;;22.37;46.00
78841;BME280;68191;47.190;27.558;2023-03-01T08:25:42;100942.42;;;22.39;45.96
78841;BME280;68191;47.190;27.558;2023-03-01T08:28:12;100941.79;;;22.41;45.92
78841;BME280;68191;47.190;27.558;2023-03-01T08:30:43;100933.95;;;22.39;46.01
78841;BME280;68191;47.190;27.558;2023-03-01T08:33:13;100932.16;;;22.39;45.98
78841;BME280;68191;47.190;27.558;2023-03-01T08:35:44;100930.27;;;22.45;45.87
78841;BME280;68191;47.190;27.558;2023-03-01T08:38:14;100929.67;;;22.52;45.86
78841;BME280;68191;47.190;27.558;2023-03-01T08:40:45;100927.05;;;22.50;45.87
78841;BME280;68191;47.190;27.558;2023-03-01T08:43:15;100917.10;;;22.53;45.85
78841;BME280;68191;47.190;27.558;2023-03-01T08:45:46;100918.33;;;22.64;45.80
78841;BME280;68191;47.190;27.558;2023-03-01T08:48:18;100912.15;;;22.74;45.70
78841;BME280;68191;47.190;27.558;2023-03-01T08:50:48;100914.34;;;22.79;45.64
78841;BME280;68191;47.190;27.558;2023-03-01T08:53:19;100913.77;;;22.84;45.48
78841;BME280;68191;47.190;27.558;2023-03-01T08:55:50;100910.40;;;22.91;45.42
78841;BME280;68191;47.190;27.558;2023-03-01T08:58:20;100909.59;;;22.92;45.41
78841;BME280;68191;47.190;27.558;2023-03-01T09:00:51;100906.45;;;22.96;45.33
78841;BME280;68191;47.190;27.558;2023-03-01T09:03:21;100901.98;;;22.98;45.33
78841;BME280;68191;47.190;27.558;2023-03-01T09:05:52;100901.20;;;23.04;45.27
78841;BME280;68191;47.190;27.558;2023-03-01T09:08:23;100898.67;;;23.11;45.23
78841;BME280;68191;47.190;27.558;2023-03-01T09:10:54;100897.52;;;23.12;45.17
78841;BME280;68191;47.190;27.558;2023-03-01T09:13:24;100899.66;;;23.19;45.03
78841;BME280;68191;47.190;27.558;2023-03-01T09:16:02;100894.59;;;23.21;45.05
78841;BME280;68191;47.190;27.558;2023-03-01T09:18:35;100896.29;;;23.31;45.00
78841;BME280;68191;47.190;27.558;2023-03-01T09:21:07;100897.83;;;23.34;44.98
78841;BME280;68191;47.190;27.558;2023-03-01T09:23:39;100896.13;;;23.44;44.87
78841;BME280;68191;47.190;27.558;2023-03-01T09:26:11;100891.39;;;23.59;44.65
78841;BME280;68191;47.190;27.558;2023-03-01T09:28:42;100886.50;;;23.64;44.47
78841;BME280;68191;47.190;27.558;2023-03-01T09:31:14;100887.05;;;23.73;44.49
78841;BME280;68191;47.190;27.558;2023-03-01T09:33:47;100885.20;;;23.88;44.29
78841;BME280;68191;47.190;27.558;2023-03-01T09:36:19;100885.86;;;23.91;44.32
78841;BME280;68191;47.190;27.558;2023-03-01T09:38:50;100884.52;;;24.03;44.23
78841;BME280;68191;47.190;27.558;2023-03-01T09:44:31;100885.27;;;24.17;44.00
78841;BME280;68191;47.190;27.558;2023-03-01T09:47:03;100888.08;;;24.16;43.96
78841;BME280;68191;47.190;27.558;2023-03-01T09:49:36;100889.90;;;24.13;44.14
78841;BME280;68191;47.190;27.558;2023-03-01T09:52:21;100889.64;;;24.12;43.98
78841;BME280;68191;47.190;27.558;2023-03-01T09:54:55;100891.16;;;24.26;43.84
78841;BME280;68191;47.190;27.558;2023-03-01T09:57:33;100882.40;;;24.43;43.47
78841;BME280;68191;47.190;27.558;2023-03-01T10:00:29;100875.98;;;24.65;43.33
78841;BME280;68191;47.190;27.558;2023-03-01T10:03:14;100878.77;;;24.83;43.05
78841;BME280;68191;47.190;27.558;2023-03-01T10:06:01;100877.38;;;24.85;42.95
78841;BME280;68191;47.190;27.558;2023-03-01T10:08:42;100878.36;;;24.89;42.94
78841;BME280;68191;47.190;27.558;2023-03-01T10:11:22;100876.52;;;24.78;40.90
78841;BME280;68191;47.190;27.558;2023-03-01T10:13:57;100874.01;;;24.61;40.54
78841;BME280;68191;47.190;27.558;2023-03-01T10:16:37;100871.45;;;24.54;41.34
78841;BME280;68191;47.190;27.558;2023-03-01T10:19:15;100869.55;;;24.44;41.92
78841;BME280;68191;47.190;27.558;2023-03-01T10:21:47;100871.73;;;24.43;42.05
78841;BME280;68191;47.190;27.558;2023-03-01T10:24:21;100874.15;;;24.54;42.07
78841;BME280;68191;47.190;27.558;2023-03-01T10:26:56;100872.48;;;24.50;42.25
78841;BME280;68191;47.190;27.558;2023-03-01T10:29:34;100869.59;;;24.39;42.47
78841;BME280;68191;47.190;27.558;2023-03-01T10:32:08;100866.07;;;24.40;42.65
78841;BME280;68191;47.190;27.558;2023-03-01T10:34:40;100861.67;;;24.57;42.51
78841;BME280;68191;47.190;27.558;2023-03-01T10:37:16;100857.50;;;24.50;42.67
78841;BME280;68191;47.190;27.558;2023-03-01T10:40:03;100860.64;;;24.38;42.72
78841;BME280;68191;47.190;27.558;2023-03-01T10:42:39;100859.49;;;24.25;42.93
78841;BME280;68191;47.190;27.558;2023-03-01T10:45:33;100855.75;;;24.16;43.06
78841;BME280;68191;47.190;27.558;2023-03-01T10:48:15;100852.05;;;24.07;43.27
78841;BME280;68191;47.190;27.558;2023-03-01T10:50:47;100849.98;;;24.08;43.27
78841;BME280;68191;47.190;27.558;2023-03-01T10:53:29;100844.98;;;24.06;43.49
78841;BME280;68191;47.190;27.558;2023-03-01T10:56:05;100840.71;;;24.00;43.71
78841;BME280;68191;47.190;27.558;2023-03-01T10:58:37;100838.52;;;24.16;43.60
78841;BME280;68191;47.190;27.558;2023-03-01T11:01:26;100828.75;;;24.41;43.31
78841;BME280;68191;47.190;27.558;2023-03-01T11:04:13;100822.38;;;24.31;43.40
78841;BME280;68191;47.190;27.558;2023-03-01T11:06:43;100820.08;;;24.21;43.49
78841;BME280;68191;47.190;27.558;2023-03-01T11:09:33;100812.52;;;24.12;43.63
78841;BME280;68191;47.190;27.558;2023-03-01T11:12:15;100815.76;;;24.05;43.75
78841;BME280;68191;47.190;27.558;2023-03-01T11:14:51;100815.85;;;23.97;43.87
78841;BME280;68191;47.190;27.558;2023-03-01T11:17:27;100821.89;;;23.90;43.93
78841;BME280;68191;47.190;27.558;2023-03-01T11:20:20;100819.41;;;23.85;43.92
78841;BME280;68191;47.190;27.558;2023-03-01T11:22:56;100814.73;;;23.78;43.93
78841;BME280;68191;47.190;27.558;2023-03-01T11:25:31;100814.30;;;23.72;44.09
78841;BME280;68191;47.190;27.558;2023-03-01T11:28:05;100811.83;;;23.66;44.15
78841;BME280;68191;47.190;27.558;2023-03-01T11:30:41;100810.91;;;23.59;44.21
78841;BME280;68191;47.190;27.558;2023-03-01T11:33:22;100807.15;;;23.54;44.37
78841;BME280;68191;47.190;27.558;2023-03-01T11:36:01;100808.48;;;23.49;44.53
78841;BME280;68191;47.190;27.558;2023-03-01T11:38:35;100811.56;;;23.44;44.52
78841;BME280;68191;47.190;27.558;2023-03-01T11:41:07;100812.65;;;23.39;44.71
78841;BME280;68191;47.190;27.558;2023-03-01T11:43:47;100811.71;;;23.33;44.72
78841;BME280;68191;47.190;27.558;2023-03-01T11:46:41;100804.23;;;23.29;44.83
78841;BME280;68191;47.190;27.558;2023-03-01T11:52:16;100801.10;;;23.23;44.88
78841;BME280;68191;47.190;27.558;2023-03-01T11:55:03;100797.05;;;23.17;45.01
78841;BME280;68191;47.190;27.558;2023-03-01T11:57:51;100798.93;;;23.14;45.06
78841;BME280;68191;47.190;27.558;2023-03-01T12:00:58;100793.98;;;23.10;45.13
78841;BME280;68191;47.190;27.558;2023-03-01T12:03:38;100784.79;;;23.06;45.17
78841;BME280;68191;47.190;27.558;2023-03-01T12:06:45;100780.38;;;23.02;45.25
78841;BME280;68191;47.190;27.558;2023-03-01T12:09:40;100777.79;;;22.98;45.25
78841;BME280;68191;47.190;27.558;2023-03-01T12:12:30;100778.27;;;22.94;45.42
78841;BME280;68191;47.190;27.558;2023-03-01T12:18:19;100769.44;;;22.91;45.50
78841;BME280;68191;47.190;27.558;2023-03-01T12:21:02;100762.58;;;22.99;45.44
78841;BME280;68191;47.190;27.558;2023-03-01T12:24:02;100761.00;;;23.03;45.38
78841;BME280;68191;47.190;27.558;2023-03-01T12:26:44;100757.08;;;23.14;45.29
78841;BME280;68191;47.190;27.558;2023-03-01T12:29:27;100760.48;;;23.19;45.10
78841;BME280;68191;47.190;27.558;2023-03-01T12:37:58;100760.94;;;23.13;45.25
78841;BME280;68191;47.190;27.558;2023-03-01T12:40:53;100765.00;;;23.12;45.28
78841;BME280;68191;47.190;27.558;2023-03-01T12:43:43;100767.09;;;23.11;45.20
78841;BME280;68191;47.190;27.558;2023-03-01T12:46:24;100763.26;;;23.25;45.09
78841;BME280;68191;47.190;27.558;2023-03-01T12:49:05;100764.20;;;23.34;44.92
78841;BME280;68191;47.190;27.558;2023-03-01T12:51:39;100762.91;;;23.37;44.77
78841;BME280;68191;47.190;27.558;2023-03-01T12:54:19;100759.77;;;23.35;44.87
78841;BME280;68191;47.190;27.558;2023-03-01T12:56:52;100761.78;;;23.33;44.96
78841;BME280;68191;47.190;27.558;2023-03-01T12:59:26;100757.67;;;23.35;44.90
78841;BME280;68191;47.190;27.558;2023-03-01T13:02:12;100748.61;;;23.37;44.90
78841;BME280;68191;47.190;27.558;2023-03-01T13:07:44;100746.31;;;23.46;44.89
78841;BME280;68191;47.190;27.558;2023-03-01T13:10:31;100745.83;;;23.50;44.82
78841;BME280;68191;47.190;27.558;2023-03-01T13:13:13;100745.05;;;23.51;44.42
78841;BME280;68191;47.190;27.558;2023-03-01T13:15:44;100742.80;;;23.52;43.96
78841;BME280;68191;47.190;27.558;2023-03-01T13:18:31;100743.05;;;23.53;43.76
78841;BME280;68191;47.190;27.558;2023-03-01T13:21:06;100749.02;;;23.53;43.65
78841;BME280;68191;47.190;27.558;2023-03-01T13:23:39;100747.73;;;23.51;43.39
78841;BME280;68191;47.190;27.558;2023-03-01T13:26:17;100747.10;;;23.47;43.13
78841;BME280;68191;47.190;27.558;2023-03-01T13:28:55;100745.20;;;23.44;42.91
78841;BME280;68191;47.190;27.558;2023-03-01T13:32:01;100743.19;;;23.42;42.71